Time,TemperatureF,DewpointF,PressureIn,WindDirection,WindDirectionDegrees,WindSpeedMPH,WindSpeedGustMPH,Humidity,HourlyPrecipIn,Conditions,Clouds,dailyrainin,SoftwareType,DateUTC
2013-02-03 00:01:00,25.0,22.0,-100.00,ESE,112,4.0,6.0,89,0.00,,,-99.99,,2013-02-03 07:01:00,
2013-02-03 00:11:00,24.0,21.0,-100.00,East,96,1.0,1.0,89,0.00,,,-99.99,,2013-02-03 07:11:00,
2013-02-03 00:21:00,22.0,20.0,-100.00,NNW,332,3.0,4.0,92,0.00,,,-99.99,,2013-02-03 07:21:00,
2013-02-03 00:31:00,22.0,20.0,-100.00,NNW,332,3.0,4.0,92,0.00,,,-99.99,,2013-02-03 07:31:00,
2013-02-03 00:41:00,22.0,20.0,-100.00,North,349,1.0,2.0,92,0.00,,,-99.99,,2013-02-03 07:41:00,
2013-02-03 00:52:00,22.0,20.0,-100.00,NNE,28,0.0,0.0,93,0.00,,,-99.99,,2013-02-03 07:52:00,
2013-02-03 01:01:00,22.0,20.0,-100.00,NNE,28,0.0,0.0,93,0.00,,,-99.99,,2013-02-03 08:01:00,
2013-02-03 01:11:00,23.0,21.0,-100.00,NE,52,0.0,0.0,93,0.00,,,-99.99,,2013-02-03 08:11:00,
2013-02-03 01:22:00,23.0,21.0,-100.00,East,80,0.0,0.0,93,0.00,,,-99.99,,2013-02-03 08:22:00,
2013-02-03 01:32:00,23.0,21.0,-100.00,East,80,0.0,0.0,93,0.00,,,-99.99,,2013-02-03 08:32:00,
2013-02-03 01:41:00,22.0,20.0,-100.00,ESE,103,0.0,0.0,93,0.00,,,-99.99,,2013-02-03 08:41:00,
2013-02-03 01:52:00,23.0,21.0,-100.00,ESE,109,0.0,1.0,93,0.00,,,-99.99,,2013-02-03 08:52:00,
2013-02-03 02:02:00,23.0,21.0,-100.00,ESE,109,0.0,1.0,93,0.00,,,-99.99,,2013-02-03 09:02:00,
2013-02-03 02:11:00,21.0,20.0,-100.00,NW,315,0.0,2.0,93,0.00,,,-99.99,,2013-02-03 09:11:00,
2013-02-03 02:21:00,22.0,20.0,-100.00,East,88,1.0,2.0,94,0.00,,,-99.99,,2013-02-03 09:21:00,
2013-02-03 02:31:00,22.0,20.0,-100.00,East,88,1.0,2.0,94,0.00,,,-99.99,,2013-02-03 09:31:00,
2013-02-03 02:41:00,22.0,21.0,-100.00,East,86,2.0,5.0,94,0.00,,,-99.99,,2013-02-03 09:41:00,
2013-02-03 02:52:00,22.0,20.0,-100.00,ESE,117,0.0,1.0,94,0.00,,,-99.99,,2013-02-03 09:52:00,
2013-02-03 03:01:00,22.0,20.0,-100.00,ESE,117,0.0,1.0,94,0.00,,,-99.99,,2013-02-03 10:01:00,
2013-02-03 03:11:00,22.0,20.0,-100.00,ESE,117,0.0,1.0,94,0.00,,,-99.99,,2013-02-03 10:11:00,
2013-02-03 03:21:00,21.0,20.0,-100.00,East,90,1.0,1.0,94,0.00,,,-99.99,,2013-02-03 10:21:00,
2013-02-03 03:31:00,21.0,20.0,-100.00,East,90,1.0,1.0,94,0.00,,,-99.99,,2013-02-03 10:31:00,
2013-02-03 03:42:00,21.0,20.0,-100.00,NNE,31,0.0,1.0,94,0.00,,,-99.99,,2013-02-03 10:42:00,
2013-02-03 03:52:00,22.0,20.0,-100.00,East,92,1.0,1.0,95,0.00,,,-99.99,,2013-02-03 10:52:00,
2013-02-03 04:01:00,22.0,20.0,-100.00,East,92,1.0,1.0,95,0.00,,,-99.99,,2013-02-03 11:01:00,
2013-02-03 04:11:00,20.0,18.0,-100.00,SSW,213,0.0,0.0,94,0.00,,,-99.99,,2013-02-03 11:11:00,
2013-02-03 04:22:00,21.0,20.0,-100.00,ENE,69,1.0,1.0,95,0.00,,,-99.99,,2013-02-03 11:22:00,
2013-02-03 04:31:00,21.0,20.0,-100.00,ENE,69,1.0,1.0,95,0.00,,,-99.99,,2013-02-03 11:31:00,
2013-02-03 04:41:00,22.0,21.0,-100.00,East,95,2.0,3.0,95,0.00,,,-99.99,,2013-02-03 11:41:00,
2013-02-03 04:52:00,22.0,21.0,-100.00,East,85,0.0,1.0,95,0.00,,,-99.99,,2013-02-03 11:52:00,
2013-02-03 05:02:00,22.0,21.0,-100.00,East,85,0.0,1.0,95,0.00,,,-99.99,,2013-02-03 12:02:00,
2013-02-03 05:11:00,18.0,17.0,-100.00,NNW,333,2.0,4.0,94,0.00,,,-99.99,,2013-02-03 12:11:00,
2013-02-03 05:22:00,22.0,21.0,-100.00,ESE,107,4.0,5.0,96,0.00,,,-99.99,,2013-02-03 12:22:00,
2013-02-03 05:32:00,22.0,21.0,-100.00,ESE,107,4.0,5.0,96,0.00,,,-99.99,,2013-02-03 12:32:00,
2013-02-03 05:42:00,22.0,20.0,-100.00,NNW,340,1.0,2.0,94,0.00,,,-99.99,,2013-02-03 12:42:00,
2013-02-03 05:53:00,21.0,19.0,-100.00,WSW,256,0.0,1.0,94,0.00,,,-99.99,,2013-02-03 12:53:00,
2013-02-03 06:02:00,21.0,19.0,-100.00,WSW,256,0.0,1.0,94,0.00,,,-99.99,,2013-02-03 13:02:00,
2013-02-03 06:11:00,20.0,19.0,-100.00,East,92,1.0,2.0,95,0.00,,,-99.99,,2013-02-03 13:11:00,
2013-02-03 06:21:00,23.0,22.0,-100.00,East,92,1.0,2.0,95,0.00,,,-99.99,,2013-02-03 13:21:00,
2013-02-03 06:32:00,23.0,22.0,-100.00,East,92,1.0,2.0,95,0.00,,,-99.99,,2013-02-03 13:32:00,
2013-02-03 06:41:00,23.0,22.0,-100.00,SSE,155,0.0,1.0,95,0.00,,,-99.99,,2013-02-03 13:41:00,
2013-02-03 06:52:00,22.0,21.0,-100.00,ESE,113,2.0,3.0,96,0.00,,,-99.99,,2013-02-03 13:52:00,
2013-02-03 07:02:00,22.0,21.0,-100.00,ESE,113,2.0,3.0,96,0.00,,,-99.99,,2013-02-03 14:02:00,
2013-02-03 07:11:00,23.0,22.0,-100.00,East,86,0.0,2.0,95,0.00,,,-99.99,,2013-02-03 14:11:00,
2013-02-03 07:21:00,20.0,18.0,-100.00,SW,220,0.0,1.0,94,0.00,,,-99.99,,2013-02-03 14:21:00,
2013-02-03 07:31:00,20.0,18.0,-100.00,SW,220,0.0,1.0,94,0.00,,,-99.99,,2013-02-03 14:31:00,
2013-02-03 07:42:00,22.0,21.0,-100.00,East,100,3.0,5.0,96,0.00,,,-99.99,,2013-02-03 14:42:00,
2013-02-03 07:52:00,23.0,22.0,-100.00,ESE,103,3.0,5.0,96,0.00,,,-99.99,,2013-02-03 14:52:00,
2013-02-03 08:02:00,23.0,22.0,-100.00,ESE,103,3.0,5.0,96,0.00,,,-99.99,,2013-02-03 15:02:00,
2013-02-03 08:11:00,23.0,22.0,-100.00,ESE,103,3.0,5.0,96,0.00,,,-99.99,,2013-02-03 15:11:00,
2013-02-03 08:21:00,22.0,21.0,-100.00,NE,51,1.0,3.0,95,0.00,,,-99.99,,2013-02-03 15:21:00,
2013-02-03 08:32:00,22.0,21.0,-100.00,NE,51,1.0,3.0,95,0.00,,,-99.99,,2013-02-03 15:32:00,
2013-02-03 08:41:00,22.0,21.0,-100.00,NE,51,1.0,3.0,95,0.00,,,-99.99,,2013-02-03 15:41:00,
2013-02-03 09:02:00,18.0,17.0,-100.00,ESE,109,1.0,2.0,95,0.00,,,-99.99,,2013-02-03 16:02:00,
2013-02-03 09:11:00,18.0,17.0,-100.00,ESE,109,1.0,2.0,95,0.00,,,-99.99,,2013-02-03 16:11:00,
2013-02-03 09:21:00,20.0,19.0,-100.00,NNE,27,0.0,0.0,95,0.00,,,-99.99,,2013-02-03 16:21:00,
2013-02-03 09:32:00,21.0,20.0,-100.00,NW,313,2.0,3.0,95,0.00,,,-99.99,,2013-02-03 16:32:00,
2013-02-03 09:41:00,21.0,20.0,-100.00,NW,313,2.0,3.0,95,0.00,,,-99.99,,2013-02-03 16:41:00,
2013-02-03 09:52:00,21.0,20.0,-100.00,SSW,195,1.0,2.0,95,0.00,,,-99.99,,2013-02-03 16:52:00,
2013-02-03 10:02:00,22.0,21.0,-100.00,West,278,0.0,1.0,95,0.00,,,-99.99,,2013-02-03 17:02:00,
2013-02-03 10:11:00,22.0,21.0,-100.00,West,278,0.0,1.0,95,0.00,,,-99.99,,2013-02-03 17:11:00,
2013-02-03 10:21:00,22.0,20.0,-100.00,NW,323,3.0,5.0,95,0.00,,,-99.99,,2013-02-03 17:21:00,
2013-02-03 10:31:00,20.0,19.0,-100.00,NNW,330,0.0,3.0,95,0.00,,,-99.99,,2013-02-03 17:31:00,
2013-02-03 10:42:00,20.0,19.0,-100.00,NNW,330,0.0,3.0,95,0.00,,,-99.99,,2013-02-03 17:42:00,
2013-02-03 10:52:00,22.0,21.0,-100.00,WNW,296,1.0,2.0,96,0.00,,,-99.99,,2013-02-03 17:52:00,
2013-02-03 11:02:00,22.0,21.0,-100.00,WNW,296,1.0,2.0,96,0.00,,,-99.99,,2013-02-03 18:02:00,
2013-02-03 11:11:00,22.0,21.0,-100.00,WNW,296,1.0,2.0,96,0.00,,,-99.99,,2013-02-03 18:11:00,
2013-02-03 11:23:00,22.0,21.0,-100.00,South,186,1.0,2.0,95,0.00,,,-99.99,,2013-02-03 18:23:00,
2013-02-03 11:32:00,22.0,21.0,-100.00,South,186,1.0,2.0,95,0.00,,,-99.99,,2013-02-03 18:32:00,
2013-02-03 11:41:00,22.0,21.0,-100.00,South,186,1.0,2.0,95,0.00,,,-99.99,,2013-02-03 18:41:00,
2013-02-03 11:52:00,23.0,22.0,-100.00,WSW,257,1.0,4.0,96,0.00,,,-99.99,,2013-02-03 18:52:00,
2013-02-03 12:02:00,23.0,22.0,-100.00,WSW,257,1.0,4.0,96,0.00,,,-99.99,,2013-02-03 19:02:00,
2013-02-03 12:11:00,23.0,22.0,-100.00,NW,315,3.0,4.0,95,0.00,,,-99.99,,2013-02-03 19:11:00,
2013-02-03 12:21:00,22.0,21.0,-100.00,NNW,328,4.0,6.0,95,0.00,,,-99.99,,2013-02-03 19:21:00,
2013-02-03 12:31:00,22.0,21.0,-100.00,NNW,328,4.0,6.0,95,0.00,,,-99.99,,2013-02-03 19:31:00,
2013-02-03 12:41:00,22.0,21.0,-100.00,NNW,328,4.0,6.0,95,0.00,,,-99.99,,2013-02-03 19:41:00,
2013-02-03 13:21:00,22.0,21.0,-100.00,NNW,337,3.0,4.0,96,0.00,,,-99.99,,2013-02-03 20:21:00,
2013-02-03 13:32:00,22.0,21.0,-100.00,NNW,337,3.0,4.0,96,0.00,,,-99.99,,2013-02-03 20:32:00,
2013-02-03 13:42:00,23.0,22.0,-100.00,NNW,347,1.0,2.0,96,0.00,,,-99.99,,2013-02-03 20:42:00,
2013-02-03 13:52:00,24.0,23.0,-100.00,WSW,254,2.0,4.0,96,0.00,,,-99.99,,2013-02-03 20:52:00,
2013-02-03 14:03:00,24.0,23.0,-100.00,WSW,254,2.0,4.0,96,0.00,,,-99.99,,2013-02-03 21:03:00,
2013-02-03 14:11:00,24.0,23.0,-100.00,WNW,292,2.0,5.0,96,0.00,,,-99.99,,2013-02-03 21:11:00,
2013-02-03 14:21:00,24.0,23.0,-100.00,NNW,330,2.0,4.0,96,0.00,,,-99.99,,2013-02-03 21:21:00,
2013-02-03 14:32:00,24.0,23.0,-100.00,NNW,330,2.0,4.0,96,0.00,,,-99.99,,2013-02-03 21:32:00,
2013-02-03 15:11:00,26.0,24.0,-100.00,NW,322,3.0,4.0,96,0.00,,,-99.99,,2013-02-03 22:11:00,
2013-02-03 15:21:00,26.0,24.0,-100.00,NW,322,3.0,4.0,96,0.00,,,-99.99,,2013-02-03 22:21:00,
2013-02-03 15:42:00,25.0,24.0,-100.00,NW,318,4.0,6.0,96,0.00,,,-99.99,,2013-02-03 22:42:00,
2013-02-03 15:52:00,25.0,24.0,-100.00,NW,319,3.0,4.0,96,0.00,,,-99.99,,2013-02-03 22:52:00,
2013-02-03 16:01:00,25.0,24.0,-100.00,NW,319,3.0,4.0,96,0.00,,,-99.99,,2013-02-03 23:01:00,
2013-02-03 16:42:00,25.0,24.0,-100.00,NNW,328,2.0,2.0,96,0.00,,,-99.99,,2013-02-03 23:42:00,
2013-02-03 16:52:00,26.0,25.0,-100.00,NW,323,2.0,4.0,96,0.00,,,-99.99,,2013-02-03 23:52:00,
2013-02-03 17:01:00,26.0,25.0,-100.00,NW,323,2.0,4.0,96,0.00,,,-99.99,,2013-02-04 00:01:00,
2013-02-03 17:11:00,26.0,25.0,-100.00,NNW,332,3.0,4.0,96,0.00,,,-99.99,,2013-02-04 00:11:00,
2013-02-03 17:22:00,26.0,25.0,-100.00,NW,326,2.0,3.0,96,0.00,,,-99.99,,2013-02-04 00:22:00,
2013-02-03 17:31:00,26.0,25.0,-100.00,NW,326,2.0,3.0,96,0.00,,,-99.99,,2013-02-04 00:31:00,
2013-02-03 17:41:00,26.0,25.0,-100.00,NW,326,2.0,3.0,96,0.00,,,-99.99,,2013-02-04 00:41:00,
2013-02-03 18:21:00,26.0,25.0,-100.00,WSW,237,0.0,0.0,94,0.00,,,-99.99,,2013-02-04 01:21:00,
2013-02-03 18:30:00,25.0,24.0,-100.00,NNW,347,0.0,1.0,95,0.00,,,-99.99,,2013-02-04 01:30:00,
2013-02-03 18:31:00,26.0,25.0,-100.00,WSW,237,0.0,0.0,94,0.00,,,-99.99,,2013-02-04 01:31:00,
2013-02-03 18:41:00,26.0,25.0,-100.00,WSW,237,0.0,0.0,94,0.00,,,-99.99,,2013-02-04 01:41:00,
2013-02-03 18:52:00,25.0,24.0,-100.00,WNW,292,0.0,1.0,95,0.00,,,-99.99,,2013-02-04 01:52:00,
2013-02-03 19:01:00,25.0,24.0,-100.00,WNW,292,0.0,1.0,95,0.00,,,-99.99,,2013-02-04 02:01:00,
2013-02-03 19:11:00,25.0,24.0,-100.00,NNW,347,0.0,1.0,95,0.00,,,-99.99,,2013-02-04 02:11:00,
2013-02-03 19:21:00,25.0,24.0,-100.00,NNW,347,0.0,1.0,95,0.00,,,-99.99,,2013-02-04 02:21:00,
2013-02-03 20:11:00,24.0,23.0,-100.00,NNE,31,0.0,0.0,94,0.00,,,-99.99,,2013-02-04 03:11:00,
2013-02-03 20:21:00,24.0,23.0,-100.00,East,92,1.0,2.0,94,0.00,,,-99.99,,2013-02-04 03:21:00,
2013-02-03 20:31:00,24.0,23.0,-100.00,East,92,1.0,2.0,94,0.00,,,-99.99,,2013-02-04 03:31:00,
2013-02-03 20:41:00,25.0,23.0,-100.00,ESE,109,3.0,4.0,94,0.00,,,-99.99,,2013-02-04 03:41:00,
2013-02-03 20:52:00,25.0,23.0,-100.00,ENE,72,1.0,2.0,93,0.00,,,-99.99,,2013-02-04 03:52:00,
2013-02-03 21:01:00,25.0,23.0,-100.00,ENE,72,1.0,2.0,93,0.00,,,-99.99,,2013-02-04 04:01:00,
2013-02-03 21:11:00,25.0,23.0,-100.00,ENE,72,1.0,2.0,93,0.00,,,-99.99,,2013-02-04 04:11:00,
2013-02-03 22:11:00,24.0,22.0,-100.00,East,95,1.0,2.0,93,0.00,,,-99.99,,2013-02-04 05:11:00,
2013-02-03 22:22:00,24.0,22.0,-100.00,ESE,103,1.0,2.0,93,0.00,,,-99.99,,2013-02-04 05:22:00,
2013-02-03 22:33:00,24.0,22.0,-100.00,ESE,103,1.0,2.0,93,0.00,,,-99.99,,2013-02-04 05:33:00,
2013-02-03 22:42:00,24.0,22.0,-100.00,ESE,103,1.0,2.0,93,0.00,,,-99.99,,2013-02-04 05:42:00,
2013-02-03 23:11:00,24.0,22.0,-100.00,ESE,113,4.0,5.0,93,0.00,,,-99.99,,2013-02-04 06:11:00,
2013-02-03 23:21:00,23.0,22.0,-100.00,ESE,109,3.0,4.0,93,0.00,,,-99.99,,2013-02-04 06:21:00,
2013-02-03 23:30:00,24.0,22.0,-100.00,ESE,110,1.0,2.0,94,0.00,,,-99.99,,2013-02-04 06:30:00,
2013-02-03 23:31:00,23.0,22.0,-100.00,ESE,109,3.0,4.0,93,0.00,,,-99.99,,2013-02-04 06:31:00,
2013-02-03 23:41:00,23.0,22.0,-100.00,ESE,109,3.0,4.0,93,0.00,,,-99.99,,2013-02-04 06:41:00,
2013-02-03 23:52:00,23.0,22.0,-100.00,ESE,114,3.0,4.0,93,0.00,,,-99.99,,2013-02-04 06:52:00,